sensor_id;sensor_type;location;lat;lon;timestamp;temperature;humidity
10905;DHT22;5505;51.450;9.254;2023-03-29T00:00:27;4.30;99.90
10905;DHT22;5505;51.450;9.254;2023-03-29T00:03:14;4.30;99.90
10905;DHT22;5505;51.450;9.254;2023-03-29T00:06:02;4.20;99.90
10905;DHT22;5505;51.450;9.254;2023-03-29T00:08:51;4.20;99.90
10905;DHT22;5505;51.450;9.254;2023-03-29T00:11:38;4.10;99.90
10905;DHT22;5505;51.450;9.254;2023-03-29T00:14:25;4.10;99.90
10905;DHT22;5505;51.450;9.254;2023-03-29T00:17:14;4.20;99.90
10905;DHT22;5505;51.450;9.254;2023-03-29T00:20:01;4.00;99.90
10905;DHT22;5505;51.450;9.254;2023-03-29T00:22:51;4.00;99.90
10905;DHT22;5505;51.450;9.254;2023-03-29T00:25:43;3.90;99.90
10905;DHT22;5505;51.450;9.254;2023-03-29T00:28:30;3.90;99.90
10905;DHT22;5505;51.450;9.254;2023-03-29T00:31:17;3.90;99.90
10905;DHT22;5505;51.450;9.254;2023-03-29T00:34:04;3.80;99.90
10905;DHT22;5505;51.450;9.254;2023-03-29T00:36:51;3.90;99.90
10905;DHT22;5505;51.450;9.254;2023-03-29T00:39:42;3.90;99.90
10905;DHT22;5505;51.450;9.254;2023-03-29T00:42:31;3.90;99.90
10905;DHT22;5505;51.450;9.254;2023-03-29T00:45:20;3.90;99.90
10905;DHT22;5505;51.450;9.254;2023-03-29T00:48:09;3.90;99.90
10905;DHT22;5505;51.450;9.254;2023-03-29T00:50:58;4.00;99.90
10905;DHT22;5505;51.450;9.254;2023-03-29T00:53:49;4.00;99.90
10905;DHT22;5505;51.450;9.254;2023-03-29T00:56:38;3.90;99.90
10905;DHT22;5505;51.450;9.254;2023-03-29T00:59:29;3.90;99.90
10905;DHT22;5505;51.450;9.254;2023-03-29T01:02:21;3.90;99.90
10905;DHT22;5505;51.450;9.254;2023-03-29T01:05:13;4.30;99.90
10905;DHT22;5505;51.450;9.254;2023-03-29T01:08:05;3.90;99.90
10905;DHT22;5505;51.450;9.254;2023-03-29T01:10:57;3.80;99.90
10905;DHT22;5505;51.450;9.254;2023-03-29T01:13:50;4.90;99.90
10905;DHT22;5505;51.450;9.254;2023-03-29T01:16:42;3.80;99.90
10905;DHT22;5505;51.450;9.254;2023-03-29T01:19:33;3.90;99.90
10905;DHT22;5505;51.450;9.254;2023-03-29T01:22:28;3.80;99.90
10905;DHT22;5505;51.450;9.254;2023-03-29T01:25:21;3.80;99.90
10905;DHT22;5505;51.450;9.254;2023-03-29T01:28:15;7.10;99.90
10905;DHT22;5505;51.450;9.254;2023-03-29T01:31:06;3.70;99.90
10905;DHT22;5505;51.450;9.254;2023-03-29T01:34:00;3.70;99.90
10905;DHT22;5505;51.450;9.254;2023-03-29T01:36:51;3.70;99.90
10905;DHT22;5505;51.450;9.254;2023-03-29T01:39:43;3.80;99.90
10905;DHT22;5505;51.450;9.254;2023-03-29T01:42:34;3.70;99.90
10905;DHT22;5505;51.450;9.254;2023-03-29T01:45:27;3.70;99.90
10905;DHT22;5505;51.450;9.254;2023-03-29T01:48:20;3.70;99.90
10905;DHT22;5505;51.450;9.254;2023-03-29T01:51:13;3.70;99.90
10905;DHT22;5505;51.450;9.254;2023-03-29T01:54:05;3.70;99.90
10905;DHT22;5505;51.450;9.254;2023-03-29T01:56:55;3.70;99.90
10905;DHT22;5505;51.450;9.254;2023-03-29T01:59:43;3.70;99.90
10905;DHT22;5505;51.450;9.254;2023-03-29T02:02:33;5.40;99.90
10905;DHT22;5505;51.450;9.254;2023-03-29T02:05:22;3.70;99.90
10905;DHT22;5505;51.450;9.254;2023-03-29T02:08:12;3.80;99.90
10905;DHT22;5505;51.450;9.254;2023-03-29T02:11:00;3.70;99.90
10905;DHT22;5505;51.450;9.254;2023-03-29T02:13:47;3.70;99.90
10905;DHT22;5505;51.450;9.254;2023-03-29T02:16:34;4.10;99.90
10905;DHT22;5505;51.450;9.254;2023-03-29T02:19:24;5.20;99.90
10905;DHT22;5505;51.450;9.254;2023-03-29T02:22:13;3.70;99.90
10905;DHT22;5505;51.450;9.254;2023-03-29T02:25:02;3.60;99.90
10905;DHT22;5505;51.450;9.254;2023-03-29T02:27:53;3.60;99.90
10905;DHT22;5505;51.450;9.254;2023-03-29T02:30:45;3.70;99.90
10905;DHT22;5505;51.450;9.254;2023-03-29T02:33:38;3.60;99.90
10905;DHT22;5505;51.450;9.254;2023-03-29T02:36:34;3.60;99.90
10905;DHT22;5505;51.450;9.254;2023-03-29T02:39:25;3.70;99.90
10905;DHT22;5505;51.450;9.254;2023-03-29T02:42:14;3.70;99.90
10905;DHT22;5505;51.450;9.254;2023-03-29T02:45:02;3.70;99.90
10905;DHT22;5505;51.450;9.254;2023-03-29T02:47:52;3.70;99.90
10905;DHT22;5505;51.450;9.254;2023-03-29T02:50:42;3.70;99.90
10905;DHT22;5505;51.450;9.254;2023-03-29T02:53:35;3.70;99.90
10905;DHT22;5505;51.450;9.254;2023-03-29T02:56:24;3.70;99.90
10905;DHT22;5505;51.450;9.254;2023-03-29T02:59:11;3.80;99.90
10905;DHT22;5505;51.450;9.254;2023-03-29T03:01:59;3.70;99.90
10905;DHT22;5505;51.450;9.254;2023-03-29T03:04:45;3.70;99.90
10905;DHT22;5505;51.450;9.254;2023-03-29T03:07:32;3.80;99.90
10905;DHT22;5505;51.450;9.254;2023-03-29T03:10:20;3.70;99.90
10905;DHT22;5505;51.450;9.254;2023-03-29T03:13:07;3.80;99.90
10905;DHT22;5505;51.450;9.254;2023-03-29T03:15:54;3.80;99.90
10905;DHT22;5505;51.450;9.254;2023-03-29T03:18:41;3.80;99.90
10905;DHT22;5505;51.450;9.254;2023-03-29T03:21:30;3.70;99.90
10905;DHT22;5505;51.450;9.254;2023-03-29T03:24:18;3.80;99.90
10905;DHT22;5505;51.450;9.254;2023-03-29T03:27:06;3.80;99.90
10905;DHT22;5505;51.450;9.254;2023-03-29T03:29:53;3.80;99.90
10905;DHT22;5505;51.450;9.254;2023-03-29T03:32:39;3.80;99.90
10905;DHT22;5505;51.450;9.254;2023-03-29T03:35:28;3.80;99.90
10905;DHT22;5505;51.450;9.254;2023-03-29T03:38:15;3.80;99.90
10905;DHT22;5505;51.450;9.254;2023-03-29T03:41:02;3.90;99.90
10905;DHT22;5505;51.450;9.254;2023-03-29T03:43:50;3.80;99.90
10905;DHT22;5505;51.450;9.254;2023-03-29T03:46:37;3.90;99.90
10905;DHT22;5505;51.450;9.254;2023-03-29T03:49:24;3.80;99.90
10905;DHT22;5505;51.450;9.254;2023-03-29T03:52:11;3.90;99.90
10905;DHT22;5505;51.450;9.254;2023-03-29T03:54:58;3.80;99.90
10905;DHT22;5505;51.450;9.254;2023-03-29T03:57:47;3.80;99.90
10905;DHT22;5505;51.450;9.254;2023-03-29T04:00:35;4.90;99.90
10905;DHT22;5505;51.450;9.254;2023-03-29T04:03:22;3.80;99.90
10905;DHT22;5505;51.450;9.254;2023-03-29T04:06:09;3.90;99.90
10905;DHT22;5505;51.450;9.254;2023-03-29T04:08:56;4.30;99.90
10905;DHT22;5505;51.450;9.254;2023-03-29T04:11:44;5.40;99.90
10905;DHT22;5505;51.450;9.254;2023-03-29T04:14:30;3.90;99.90
10905;DHT22;5505;51.450;9.254;2023-03-29T04:17:19;3.90;99.90
10905;DHT22;5505;51.450;9.254;2023-03-29T04:20:06;3.80;99.90
10905;DHT22;5505;51.450;9.254;2023-03-29T04:22:56;3.90;99.90
10905;DHT22;5505;51.450;9.254;2023-03-29T04:25:43;3.90;99.90
10905;DHT22;5505;51.450;9.254;2023-03-29T04:28:30;4.30;99.90
10905;DHT22;5505;51.450;9.254;2023-03-29T04:31:17;3.90;99.90
10905;DHT22;5505;51.450;9.254;2023-03-29T04:34:05;4.00;99.90
10905;DHT22;5505;51.450;9.254;2023-03-29T04:36:52;4.00;99.90
10905;DHT22;5505;51.450;9.254;2023-03-29T04:39:39;3.90;99.90
10905;DHT22;5505;51.450;9.254;2023-03-29T04:42:27;5.60;99.90
10905;DHT22;5505;51.450;9.254;2023-03-29T04:45:14;4.00;99.90
10905;DHT22;5505;51.450;9.254;2023-03-29T04:48:02;3.90;99.90
10905;DHT22;5505;51.450;9.254;2023-03-29T04:50:51;4.00;99.90
10905;DHT22;5505;51.450;9.254;2023-03-29T04:53:39;4.00;99.90
10905;DHT22;5505;51.450;9.254;2023-03-29T04:56:26;4.00;99.90
10905;DHT22;5505;51.450;9.254;2023-03-29T04:59:12;4.00;99.90
10905;DHT22;5505;51.450;9.254;2023-03-29T05:01:59;4.00;99.90
10905;DHT22;5505;51.450;9.254;2023-03-29T05:04:47;4.00;99.90
10905;DHT22;5505;51.450;9.254;2023-03-29T05:07:36;4.00;99.90
10905;DHT22;5505;51.450;9.254;2023-03-29T05:10:23;4.00;99.90
10905;DHT22;5505;51.450;9.254;2023-03-29T05:13:10;4.10;99.90
10905;DHT22;5505;51.450;9.254;2023-03-29T05:15:56;4.10;99.90
10905;DHT22;5505;51.450;9.254;2023-03-29T05:18:45;4.10;99.90
10905;DHT22;5505;51.450;9.254;2023-03-29T05:21:31;4.10;99.90
10905;DHT22;5505;51.450;9.254;2023-03-29T05:24:20;4.10;99.90
10905;DHT22;5505;51.450;9.254;2023-03-29T05:27:07;4.10;99.90
10905;DHT22;5505;51.450;9.254;2023-03-29T05:29:54;4.10;99.90
10905;DHT22;5505;51.450;9.254;2023-03-29T05:32:41;4.20;99.90
10905;DHT22;5505;51.450;9.254;2023-03-29T05:35:28;4.20;99.90
10905;DHT22;5505;51.450;9.254;2023-03-29T05:38:14;4.10;99.90
10905;DHT22;5505;51.450;9.254;2023-03-29T05:41:04;4.20;99.90
10905;DHT22;5505;51.450;9.254;2023-03-29T05:43:51;4.30;99.90
10905;DHT22;5505;51.450;9.254;2023-03-29T05:46:38;4.30;99.90
10905;DHT22;5505;51.450;9.254;2023-03-29T05:49:25;5.00;99.90
10905;DHT22;5505;51.450;9.254;2023-03-29T05:52:12;5.20;99.90
10905;DHT22;5505;51.450;9.254;2023-03-29T05:54:59;4.30;99.90
10905;DHT22;5505;51.450;9.254;2023-03-29T05:57:47;4.30;99.90
10905;DHT22;5505;51.450;9.254;2023-03-29T06:00:34;4.40;99.90
10905;DHT22;5505;51.450;9.254;2023-03-29T06:03:23;4.40;99.90
10905;DHT22;5505;51.450;9.254;2023-03-29T06:06:12;4.40;99.90
10905;DHT22;5505;51.450;9.254;2023-03-29T06:09:00;4.50;99.90
10905;DHT22;5505;51.450;9.254;2023-03-29T06:11:47;4.50;99.90
10905;DHT22;5505;51.450;9.254;2023-03-29T06:14:36;4.50;99.90
10905;DHT22;5505;51.450;9.254;2023-03-29T06:17:23;5.30;99.90
10905;DHT22;5505;51.450;9.254;2023-03-29T06:20:10;5.40;99.90
10905;DHT22;5505;51.450;9.254;2023-03-29T06:22:57;4.50;99.90
10905;DHT22;5505;51.450;9.254;2023-03-29T06:25:44;4.50;99.90
10905;DHT22;5505;51.450;9.254;2023-03-29T06:28:32;4.60;99.90
10905;DHT22;5505;51.450;9.254;2023-03-29T06:31:20;6.00;99.90
10905;DHT22;5505;51.450;9.254;2023-03-29T06:34:07;6.70;99.90
10905;DHT22;5505;51.450;9.254;2023-03-29T06:36:54;4.70;99.90
10905;DHT22;5505;51.450;9.254;2023-03-29T06:39:40;4.70;99.90
10905;DHT22;5505;51.450;9.254;2023-03-29T06:42:28;4.70;99.90
10905;DHT22;5505;51.450;9.254;2023-03-29T06:45:15;4.70;99.90
10905;DHT22;5505;51.450;9.254;2023-03-29T06:48:04;5.40;99.90
10905;DHT22;5505;51.450;9.254;2023-03-29T06:50:52;4.90;99.90
10905;DHT22;5505;51.450;9.254;2023-03-29T06:53:39;4.90;99.90
10905;DHT22;5505;51.450;9.254;2023-03-29T06:56:25;5.00;99.90
10905;DHT22;5505;51.450;9.254;2023-03-29T06:59:14;5.00;99.90
10905;DHT22;5505;51.450;9.254;2023-03-29T07:02:01;5.10;99.90
10905;DHT22;5505;51.450;9.254;2023-03-29T07:04:49;6.70;99.90
10905;DHT22;5505;51.450;9.254;2023-03-29T07:07:36;5.10;99.90
10905;DHT22;5505;51.450;9.254;2023-03-29T07:10:39;6.70;99.90
10905;DHT22;5505;51.450;9.254;2023-03-29T07:13:27;5.10;99.90
10905;DHT22;5505;51.450;9.254;2023-03-29T07:16:15;5.20;99.90
10905;DHT22;5505;51.450;9.254;2023-03-29T07:19:03;5.30;99.90
10905;DHT22;5505;51.450;9.254;2023-03-29T07:21:52;5.30;99.90
10905;DHT22;5505;51.450;9.254;2023-03-29T07:24:39;5.30;99.90
10905;DHT22;5505;51.450;9.254;2023-03-29T07:27:26;5.40;99.90
10905;DHT22;5505;51.450;9.254;2023-03-29T07:30:14;5.40;99.90
10905;DHT22;5505;51.450;9.254;2023-03-29T07:33:02;5.50;99.90
10905;DHT22;5505;51.450;9.254;2023-03-29T07:35:49;5.60;99.90
10905;DHT22;5505;51.450;9.254;2023-03-29T07:38:37;5.60;99.90
10905;DHT22;5505;51.450;9.254;2023-03-29T07:41:24;5.70;99.90
10905;DHT22;5505;51.450;9.254;2023-03-29T07:44:11;7.20;99.90
10905;DHT22;5505;51.450;9.254;2023-03-29T07:46:59;5.90;99.90
10905;DHT22;5505;51.450;9.254;2023-03-29T07:49:46;6.00;99.90
10905;DHT22;5505;51.450;9.254;2023-03-29T07:52:34;6.20;99.90
10905;DHT22;5505;51.450;9.254;2023-03-29T07:55:22;6.20;99.90
10905;DHT22;5505;51.450;9.254;2023-03-29T07:58:09;6.30;99.90
10905;DHT22;5505;51.450;9.254;2023-03-29T08:00:57;6.30;99.90
10905;DHT22;5505;51.450;9.254;2023-03-29T08:03:45;6.40;99.90
10905;DHT22;5505;51.450;9.254;2023-03-29T08:06:32;6.40;99.90
10905;DHT22;5505;51.450;9.254;2023-03-29T08:09:19;6.50;99.90
10905;DHT22;5505;51.450;9.254;2023-03-29T08:12:08;6.60;99.90
10905;DHT22;5505;51.450;9.254;2023-03-29T08:14:54;6.60;99.90
10905;DHT22;5505;51.450;9.254;2023-03-29T08:17:41;6.60;99.90
10905;DHT22;5505;51.450;9.254;2023-03-29T08:20:42;6.70;99.90
10905;DHT22;5505;51.450;9.254;2023-03-29T08:23:30;6.90;99.90
10905;DHT22;5505;51.450;9.254;2023-03-29T08:26:16;7.00;99.90
10905;DHT22;5505;51.450;9.254;2023-03-29T08:29:05;7.20;99.90
10905;DHT22;5505;51.450;9.254;2023-03-29T08:31:52;7.40;99.90
10905;DHT22;5505;51.450;9.254;2023-03-29T08:34:40;7.50;99.90
10905;DHT22;5505;51.450;9.254;2023-03-29T08:37:27;7.90;99.90
10905;DHT22;5505;51.450;9.254;2023-03-29T08:40:17;7.50;99.90
10905;DHT22;5505;51.450;9.254;2023-03-29T08:43:30;7.40;99.90
10905;DHT22;5505;51.450;9.254;2023-03-29T08:46:30;7.40;99.90
10905;DHT22;5505;51.450;9.254;2023-03-29T08:49:19;7.70;99.90
10905;DHT22;5505;51.450;9.254;2023-03-29T08:52:16;7.80;99.90
10905;DHT22;5505;51.450;9.254;2023-03-29T08:55:10;8.00;99.90
10905;DHT22;5505;51.450;9.254;2023-03-29T08:58:03;8.20;99.90
10905;DHT22;5505;51.450;9.254;2023-03-29T09:00:53;8.30;99.90
10905;DHT22;5505;51.450;9.254;2023-03-29T09:03:44;8.30;99.90
10905;DHT22;5505;51.450;9.254;2023-03-29T09:06:32;8.30;99.90
10905;DHT22;5505;51.450;9.254;2023-03-29T09:09:21;8.30;99.90
10905;DHT22;5505;51.450;9.254;2023-03-29T09:12:19;8.30;99.90
10905;DHT22;5505;51.450;9.254;2023-03-29T09:15:14;8.40;99.90
10905;DHT22;5505;51.450;9.254;2023-03-29T09:18:11;8.40;99.90
10905;DHT22;5505;51.450;9.254;2023-03-29T09:21:06;8.50;99.90
10905;DHT22;5505;51.450;9.254;2023-03-29T09:24:09;8.60;99.90
10905;DHT22;5505;51.450;9.254;2023-03-29T09:27:03;8.50;99.90
10905;DHT22;5505;51.450;9.254;2023-03-29T09:30:02;8.60;99.90
10905;DHT22;5505;51.450;9.254;2023-03-29T09:32:52;8.80;99.90
10905;DHT22;5505;51.450;9.254;2023-03-29T09:35:43;8.90;99.90
10905;DHT22;5505;51.450;9.254;2023-03-29T09:38:39;10.50;99.90
10905;DHT22;5505;51.450;9.254;2023-03-29T09:41:30;10.90;99.90
10905;DHT22;5505;51.450;9.254;2023-03-29T09:44:21;9.50;99.90
10905;DHT22;5505;51.450;9.254;2023-03-29T09:47:13;9.60;99.90
10905;DHT22;5505;51.450;9.254;2023-03-29T09:50:09;9.50;99.90
10905;DHT22;5505;51.450;9.254;2023-03-29T09:52:57;9.60;99.90
10905;DHT22;5505;51.450;9.254;2023-03-29T09:55:47;9.50;99.90
10905;DHT22;5505;51.450;9.254;2023-03-29T09:58:35;9.50;99.90
10905;DHT22;5505;51.450;9.254;2023-03-29T10:01:22;9.60;99.90
10905;DHT22;5505;51.450;9.254;2023-03-29T10:04:10;9.60;99.90
10905;DHT22;5505;51.450;9.254;2023-03-29T10:06:59;9.70;99.90
10905;DHT22;5505;51.450;9.254;2023-03-29T10:09:54;9.70;99.90
10905;DHT22;5505;51.450;9.254;2023-03-29T10:12:46;9.80;99.90
10905;DHT22;5505;51.450;9.254;2023-03-29T10:15:34;9.80;99.90
10905;DHT22;5505;51.450;9.254;2023-03-29T10:18:24;9.90;99.90
10905;DHT22;5505;51.450;9.254;2023-03-29T10:21:13;10.00;99.90
10905;DHT22;5505;51.450;9.254;2023-03-29T10:24:01;10.10;99.90
10905;DHT22;5505;51.450;9.254;2023-03-29T10:26:50;10.20;99.90
10905;DHT22;5505;51.450;9.254;2023-03-29T10:29:41;10.30;99.90
10905;DHT22;5505;51.450;9.254;2023-03-29T10:32:31;10.50;99.90
10905;DHT22;5505;51.450;9.254;2023-03-29T10:35:21;10.40;99.90
10905;DHT22;5505;51.450;9.254;2023-03-29T10:38:11;10.50;99.90
10905;DHT22;5505;51.450;9.254;2023-03-29T10:41:04;10.50;99.90
10905;DHT22;5505;51.450;9.254;2023-03-29T10:43:53;10.60;99.90
10905;DHT22;5505;51.450;9.254;2023-03-29T10:46:42;10.70;99.90
10905;DHT22;5505;51.450;9.254;2023-03-29T10:49:29;10.70;99.90
10905;DHT22;5505;51.450;9.254;2023-03-29T10:52:16;10.70;99.90
10905;DHT22;5505;51.450;9.254;2023-03-29T10:55:03;10.80;99.90
10905;DHT22;5505;51.450;9.254;2023-03-29T10:57:59;10.80;99.90
10905;DHT22;5505;51.450;9.254;2023-03-29T11:00:54;10.90;99.90
10905;DHT22;5505;51.450;9.254;2023-03-29T11:03:54;11.10;99.90
10905;DHT22;5505;51.450;9.254;2023-03-29T11:06:51;10.80;99.90
10905;DHT22;5505;51.450;9.254;2023-03-29T11:09:47;10.80;99.90
10905;DHT22;5505;51.450;9.254;2023-03-29T11:12:40;11.00;99.90
10905;DHT22;5505;51.450;9.254;2023-03-29T11:15:46;11.00;99.90
10905;DHT22;5505;51.450;9.254;2023-03-29T11:22:10;11.10;99.90
10905;DHT22;5505;51.450;9.254;2023-03-29T11:25:24;11.10;99.90
10905;DHT22;5505;51.450;9.254;2023-03-29T11:28:19;11.10;99.90
10905;DHT22;5505;51.450;9.254;2023-03-29T11:31:14;11.10;99.90
10905;DHT22;5505;51.450;9.254;2023-03-29T11:34:17;11.10;99.90
10905;DHT22;5505;51.450;9.254;2023-03-29T11:37:15;11.10;99.90
10905;DHT22;5505;51.450;9.254;2023-03-29T11:40:22;11.10;99.90
10905;DHT22;5505;51.450;9.254;2023-03-29T11:43:17;11.10;99.90
10905;DHT22;5505;51.450;9.254;2023-03-29T11:46:10;11.10;99.90
10905;DHT22;5505;51.450;9.254;2023-03-29T11:49:02;11.30;99.90
10905;DHT22;5505;51.450;9.254;2023-03-29T11:51:54;11.50;99.90
10905;DHT22;5505;51.450;9.254;2023-03-29T11:54:49;11.50;99.90
10905;DHT22;5505;51.450;9.254;2023-03-29T11:57:39;11.70;99.90
10905;DHT22;5505;51.450;9.254;2023-03-29T12:00:31;11.80;99.90
10905;DHT22;5505;51.450;9.254;2023-03-29T12:03:29;11.90;99.90
10905;DHT22;5505;51.450;9.254;2023-03-29T12:06:23;12.00;99.90
10905;DHT22;5505;51.450;9.254;2023-03-29T12:09:22;12.00;99.90
10905;DHT22;5505;51.450;9.254;2023-03-29T12:12:16;12.10;99.90
10905;DHT22;5505;51.450;9.254;2023-03-29T12:15:09;12.30;99.90
10905;DHT22;5505;51.450;9.254;2023-03-29T12:18:04;12.30;99.90
10905;DHT22;5505;51.450;9.254;2023-03-29T12:20:55;12.50;99.90
10905;DHT22;5505;51.450;9.254;2023-03-29T12:23:44;13.00;99.90
10905;DHT22;5505;51.450;9.254;2023-03-29T12:26:51;12.50;99.90
10905;DHT22;5505;51.450;9.254;2023-03-29T12:29:58;12.40;99.90
10905;DHT22;5505;51.450;9.254;2023-03-29T12:33:34;12.40;99.90
10905;DHT22;5505;51.450;9.254;2023-03-29T12:36:49;12.40;99.90
10905;DHT22;5505;51.450;9.254;2023-03-29T12:39:40;12.60;99.90
10905;DHT22;5505;51.450;9.254;2023-03-29T12:42:27;12.60;99.90
10905;DHT22;5505;51.450;9.254;2023-03-29T12:45:19;12.70;99.90
10905;DHT22;5505;51.450;9.254;2023-03-29T12:48:06;12.80;99.90
10905;DHT22;5505;51.450;9.254;2023-03-29T12:51:01;12.80;99.90
10905;DHT22;5505;51.450;9.254;2023-03-29T12:53:50;12.80;99.90
10905;DHT22;5505;51.450;9.254;2023-03-29T12:56:41;12.90;99.90
10905;DHT22;5505;51.450;9.254;2023-03-29T12:59:36;13.00;99.90
10905;DHT22;5505;51.450;9.254;2023-03-29T13:02:33;13.10;99.90
10905;DHT22;5505;51.450;9.254;2023-03-29T13:05:30;13.20;99.90
10905;DHT22;5505;51.450;9.254;2023-03-29T13:08:25;13.40;99.90
10905;DHT22;5505;51.450;9.254;2023-03-29T13:11:24;13.40;99.90
10905;DHT22;5505;51.450;9.254;2023-03-29T13:14:16;13.50;99.90
10905;DHT22;5505;51.450;9.254;2023-03-29T13:17:07;13.50;99.90
10905;DHT22;5505;51.450;9.254;2023-03-29T13:20:11;13.50;99.90
10905;DHT22;5505;51.450;9.254;2023-03-29T13:23:14;13.50;99.90
10905;DHT22;5505;51.450;9.254;2023-03-29T13:26:19;13.50;99.90
10905;DHT22;5505;51.450;9.254;2023-03-29T13:29:36;13.50;99.90
10905;DHT22;5505;51.450;9.254;2023-03-29T13:32:38;13.40;99.90
10905;DHT22;5505;51.450;9.254;2023-03-29T13:35:39;13.40;99.90
10905;DHT22;5505;51.450;9.254;2023-03-29T13:38:28;13.50;99.90
10905;DHT22;5505;51.450;9.254;2023-03-29T13:41:30;13.50;99.90
10905;DHT22;5505;51.450;9.254;2023-03-29T13:44:24;13.60;99.90
10905;DHT22;5505;51.450;9.254;2023-03-29T13:47:15;13.90;99.90
10905;DHT22;5505;51.450;9.254;2023-03-29T13:50:16;13.70;99.90
10905;DHT22;5505;51.450;9.254;2023-03-29T13:53:09;13.70;99.90
10905;DHT22;5505;51.450;9.254;2023-03-29T13:55:58;13.90;99.90
10905;DHT22;5505;51.450;9.254;2023-03-29T13:58:48;15.10;99.90
10905;DHT22;5505;51.450;9.254;2023-03-29T14:01:40;14.10;99.90
10905;DHT22;5505;51.450;9.254;2023-03-29T14:04:34;14.10;99.90
10905;DHT22;5505;51.450;9.254;2023-03-29T14:07:23;14.00;99.90
10905;DHT22;5505;51.450;9.254;2023-03-29T14:10:13;13.90;99.90
10905;DHT22;5505;51.450;9.254;2023-03-29T14:13:02;14.00;99.90
10905;DHT22;5505;51.450;9.254;2023-03-29T14:15:51;14.00;99.90
10905;DHT22;5505;51.450;9.254;2023-03-29T14:18:40;14.10;99.90
10905;DHT22;5505;51.450;9.254;2023-03-29T14:21:29;14.20;99.90
10905;DHT22;5505;51.450;9.254;2023-03-29T14:24:19;14.20;99.90
10905;DHT22;5505;51.450;9.254;2023-03-29T14:27:11;14.20;99.90
10905;DHT22;5505;51.450;9.254;2023-03-29T14:29:58;14.80;99.90
10905;DHT22;5505;51.450;9.254;2023-03-29T14:32:46;14.00;99.90
10905;DHT22;5505;51.450;9.254;2023-03-29T14:35:33;13.90;99.90
10905;DHT22;5505;51.450;9.254;2023-03-29T14:38:21;13.80;99.90
10905;DHT22;5505;51.450;9.254;2023-03-29T14:41:08;14.80;99.90
10905;DHT22;5505;51.450;9.254;2023-03-29T14:43:57;13.80;99.90
10905;DHT22;5505;51.450;9.254;2023-03-29T14:46:45;13.70;99.90
10905;DHT22;5505;51.450;9.254;2023-03-29T14:49:32;13.70;99.90
10905;DHT22;5505;51.450;9.254;2023-03-29T14:52:20;13.80;99.90
10905;DHT22;5505;51.450;9.254;2023-03-29T14:55:09;13.80;99.90
10905;DHT22;5505;51.450;9.254;2023-03-29T14:57:57;13.80;99.90
10905;DHT22;5505;51.450;9.254;2023-03-29T15:00:47;13.70;99.90
10905;DHT22;5505;51.450;9.254;2023-03-29T15:03:42;13.70;99.90
10905;DHT22;5505;51.450;9.254;2023-03-29T15:06:29;13.60;99.90
10905;DHT22;5505;51.450;9.254;2023-03-29T15:09:19;13.60;99.90
10905;DHT22;5505;51.450;9.254;2023-03-29T15:12:14;13.50;99.90
10905;DHT22;5505;51.450;9.254;2023-03-29T15:15:01;13.50;99.90
10905;DHT22;5505;51.450;9.254;2023-03-29T15:17:51;13.40;99.90
10905;DHT22;5505;51.450;9.254;2023-03-29T15:20:40;13.40;99.90
10905;DHT22;5505;51.450;9.254;2023-03-29T15:23:34;13.30;99.90
10905;DHT22;5505;51.450;9.254;2023-03-29T15:26:23;14.20;99.90
10905;DHT22;5505;51.450;9.254;2023-03-29T15:29:13;13.30;99.90
10905;DHT22;5505;51.450;9.254;2023-03-29T15:32:01;13.20;99.90
10905;DHT22;5505;51.450;9.254;2023-03-29T15:34:58;13.20;99.90
10905;DHT22;5505;51.450;9.254;2023-03-29T15:37:46;13.20;99.90
10905;DHT22;5505;51.450;9.254;2023-03-29T15:40:32;13.20;99.90
10905;DHT22;5505;51.450;9.254;2023-03-29T15:43:19;13.10;99.90
10905;DHT22;5505;51.450;9.254;2023-03-29T15:46:10;13.10;99.90
10905;DHT22;5505;51.450;9.254;2023-03-29T15:48:57;13.00;99.90
10905;DHT22;5505;51.450;9.254;2023-03-29T15:51:45;13.00;99.90
10905;DHT22;5505;51.450;9.254;2023-03-29T15:54:32;14.20;99.90
10905;DHT22;5505;51.450;9.254;2023-03-29T15:57:21;12.80;99.90
10905;DHT22;5505;51.450;9.254;2023-03-29T16:00:12;13.00;99.90
10905;DHT22;5505;51.450;9.254;2023-03-29T16:02:59;13.00;99.90
10905;DHT22;5505;51.450;9.254;2023-03-29T16:05:46;13.00;99.90
10905;DHT22;5505;51.450;9.254;2023-03-29T16:08:34;12.90;99.90
10905;DHT22;5505;51.450;9.254;2023-03-29T16:11:21;12.90;99.90
10905;DHT22;5505;51.450;9.254;2023-03-29T16:14:18;12.80;99.90
10905;DHT22;5505;51.450;9.254;2023-03-29T16:17:05;14.00;99.90
10905;DHT22;5505;51.450;9.254;2023-03-29T16:19:52;12.80;99.90
10905;DHT22;5505;51.450;9.254;2023-03-29T16:22:39;12.80;99.90
10905;DHT22;5505;51.450;9.254;2023-03-29T16:25:27;12.80;99.90
10905;DHT22;5505;51.450;9.254;2023-03-29T16:28:15;12.80;99.90
10905;DHT22;5505;51.450;9.254;2023-03-29T16:31:02;12.70;99.90
10905;DHT22;5505;51.450;9.254;2023-03-29T16:33:48;12.70;99.90
10905;DHT22;5505;51.450;9.254;2023-03-29T16:36:36;12.70;99.90
10905;DHT22;5505;51.450;9.254;2023-03-29T16:39:23;12.60;99.90
10905;DHT22;5505;51.450;9.254;2023-03-29T16:42:11;12.60;99.90
10905;DHT22;5505;51.450;9.254;2023-03-29T16:44:58;12.50;99.90
10905;DHT22;5505;51.450;9.254;2023-03-29T16:47:46;11.50;99.90
10905;DHT22;5505;51.450;9.254;2023-03-29T16:50:33;12.40;99.90
10905;DHT22;5505;51.450;9.254;2023-03-29T16:53:20;12.40;99.90
10905;DHT22;5505;51.450;9.254;2023-03-29T16:56:06;12.40;99.90
10905;DHT22;5505;51.450;9.254;2023-03-29T16:58:55;12.40;99.90
10905;DHT22;5505;51.450;9.254;2023-03-29T17:01:42;12.20;99.90
10905;DHT22;5505;51.450;9.254;2023-03-29T17:04:28;12.10;99.90
10905;DHT22;5505;51.450;9.254;2023-03-29T17:07:15;12.00;99.90
10905;DHT22;5505;51.450;9.254;2023-03-29T17:10:03;12.00;99.90
10905;DHT22;5505;51.450;9.254;2023-03-29T17:12:50;12.00;99.90
10905;DHT22;5505;51.450;9.254;2023-03-29T17:15:38;11.90;99.90
10905;DHT22;5505;51.450;9.254;2023-03-29T17:18:25;11.90;99.90
10905;DHT22;5505;51.450;9.254;2023-03-29T17:21:12;11.80;99.90
10905;DHT22;5505;51.450;9.254;2023-03-29T17:23:59;11.70;99.90
10905;DHT22;5505;51.450;9.254;2023-03-29T17:26:46;11.70;99.90
10905;DHT22;5505;51.450;9.254;2023-03-29T17:29:33;11.70;99.90
10905;DHT22;5505;51.450;9.254;2023-03-29T17:32:21;11.70;99.90
10905;DHT22;5505;51.450;9.254;2023-03-29T17:35:08;12.10;99.90
10905;DHT22;5505;51.450;9.254;2023-03-29T17:37:55;11.50;99.90
10905;DHT22;5505;51.450;9.254;2023-03-29T17:40:43;11.50;99.90
10905;DHT22;5505;51.450;9.254;2023-03-29T17:43:36;11.40;99.90
10905;DHT22;5505;51.450;9.254;2023-03-29T17:46:23;11.30;99.90
10905;DHT22;5505;51.450;9.254;2023-03-29T17:49:11;11.30;99.90
10905;DHT22;5505;51.450;9.254;2023-03-29T17:51:58;11.30;99.90
10905;DHT22;5505;51.450;9.254;2023-03-29T17:54:45;11.80;99.90
10905;DHT22;5505;51.450;9.254;2023-03-29T17:57:32;11.20;99.90
10905;DHT22;5505;51.450;9.254;2023-03-29T18:00:19;11.20;99.90
10905;DHT22;5505;51.450;9.254;2023-03-29T18:03:06;11.20;99.90
10905;DHT22;5505;51.450;9.254;2023-03-29T18:05:54;11.20;99.90
10905;DHT22;5505;51.450;9.254;2023-03-29T18:08:41;11.10;99.90
10905;DHT22;5505;51.450;9.254;2023-03-29T18:11:28;11.10;99.90
10905;DHT22;5505;51.450;9.254;2023-03-29T18:14:15;11.10;99.90
10905;DHT22;5505;51.450;9.254;2023-03-29T18:17:02;11.10;99.90
10905;DHT22;5505;51.450;9.254;2023-03-29T18:19:52;11.00;99.90
10905;DHT22;5505;51.450;9.254;2023-03-29T18:22:42;11.10;99.90
10905;DHT22;5505;51.450;9.254;2023-03-29T18:25:30;11.00;99.90